Terminal Aerodrome Forecast
Issued by NWS

Home | Current Version | Previous Version | Text Only | Print | Product List | Glossary On
Versions: 1 2 3 4 5 6 7 8 9 10 11 12 13 14 15 16 17 18 19 20 21 22 23 24 25 26
000
FTUS42 KGSP 282300
TAFHKY
TAF
KHKY 282325Z 2900/2924 VRB03KT P6SM SCT050
     FM290800 00000KT P6SM FEW012 BKN060
     FM291300 04003KT P6SM SCT023 BKN040
     FM291600 09004KT P6SM SCT040=

USA.gov is the U.S. government's official web portal to all federal, state and local government web resources and services.